Carroll, IA

2:37 AM CDT on October 19, 2017 (GMT -0500)
Neu

Weather History for KCIN - October, 2012

Change the Weather History Date:

Monday, October 1, 2012

  Actual Average Record
Temperature  
Mean Temperature 60 °F -  
Max Temperature 75 °F 73 °F 92 °F (1976)
Min Temperature 46 °F 46 °F 23 °F (1958)
Degree Days  
Heating Degree Days 4    
Growing Degree Days 10 (Base 50)    
Moisture  
Dew Point 40 °F    
Average Humidity 51    
Maximum Humidity 82    
Minimum Humidity 20    
Precipitation  
Precipitation 0.00 in - - ()
Sea Level Pressure  
Sea Level Pressure 29.92 in    
Wind  
Wind Speed 10 mph (NNW)    
Max Wind Speed 28 mph    
Max Gust Speed 36 mph    
Visibility 10 miles    
Events      
Averages and records for this station are not official NWS values.
T = Trace of Precipitation, MM = Missing Value Source: NWS Daily Summary

Daily Weather History Graph

Daily Weather History Graph

Search for Another Location

Airport or City:

Trip Planner

Search our weather history database for the weather conditions in past years. The results will help you decide how hot, cold, wet, or windy it might be!

Date:

Astronomy

Oct. 01, 2012 Rise Set
Actual Time 7:16 AM CDT 6:59 PM CDT
Civil Twilight 6:48 AM CDT 7:27 PM CDT
Nautical Twilight 6:16 AM CDT 8:00 PM CDT
Astronomical Twilight 5:43 AM CDT 8:32 PM CDT
Moon 7:34 PM CDT (10/1) 8:49 AM CDT (10/1)
Length of Visible Light 12h 38m
Length of Day
11h 43m
Full, 98% of the Moon is Illuminated
Oct 1
Full
Oct 8
Last Quarter
Oct 15
New
Oct 21
First Quarter
Oct 29
Full

Hourly Weather History & Observations

Time (CDT) Temp. Windchill Dew Point Humidity Pressure Visibility Wind Dir Wind Speed Gust Speed Precip Events Conditions
12:15 AM 51.8 °F - 42.8 °F 71% 29.92 in 10.0 mi West 4.6 mph - N/A   Clear
12:35 AM 51.8 °F - 42.8 °F 71% 29.91 in 10.0 mi WNW 6.9 mph - N/A   Clear
1:15 AM 51.8 °F - 42.8 °F 71% 29.91 in 10.0 mi Calm Calm - N/A   Clear
1:35 AM 51.8 °F - 42.8 °F 71% 29.90 in 10.0 mi Calm Calm - N/A   Clear
1:55 AM 51.8 °F - 42.8 °F 71% 29.90 in 10.0 mi Calm Calm - N/A   Clear
2:35 AM 48.2 °F - 41.0 °F 76% 29.90 in 10.0 mi Calm Calm - N/A   Clear
2:55 AM 48.2 °F - 41.0 °F 76% 29.89 in 10.0 mi Calm Calm - N/A   Clear
3:15 AM 48.2 °F - 42.8 °F 82% 29.89 in 10.0 mi WNW 5.8 mph - N/A   Clear
3:35 AM 48.2 °F - 42.8 °F 82% 29.89 in 10.0 mi West 6.9 mph - N/A   Clear
3:55 AM 48.2 °F - 41.0 °F 76% 29.88 in 10.0 mi WNW 4.6 mph - N/A   Clear
4:15 AM 48.2 °F - 41.0 °F 76% 29.88 in 10.0 mi North 3.5 mph - N/A   Clear
4:35 AM 48.2 °F - 41.0 °F 76% 29.89 in 10.0 mi Calm Calm - N/A   Clear
4:55 AM 46.4 °F - 41.0 °F 81% 29.89 in 7.0 mi Calm Calm - N/A   Clear
5:15 AM 46.4 °F 43.5 °F 41.0 °F 81% 29.89 in 10.0 mi WNW 5.8 mph - N/A   Clear
5:35 AM 46.4 °F 43.5 °F 41.0 °F 81% 29.89 in 10.0 mi WNW 5.8 mph - N/A   Clear
5:55 AM 48.2 °F - 41.0 °F 76% 29.88 in 10.0 mi WNW 3.5 mph - N/A   Clear
6:15 AM 48.2 °F - 41.0 °F 76% 29.89 in 10.0 mi West 3.5 mph - N/A   Clear
6:35 AM 48.2 °F - 41.0 °F 76% 29.90 in 10.0 mi West 6.9 mph - N/A   Clear
7:15 AM 48.2 °F - 41.0 °F 76% 29.90 in 9.0 mi NW 4.6 mph - N/A   Clear
7:35 AM 48.2 °F - 41.0 °F 76% 29.90 in 10.0 mi NW 9.2 mph - N/A   Clear
8:15 AM 53.6 °F - 42.8 °F 67% 29.92 in 10.0 mi NNW 10.4 mph - N/A   Clear
8:35 AM 55.4 °F - 42.8 °F 63% 29.92 in 10.0 mi NNW 10.4 mph - N/A   Clear
9:35 AM 62.6 °F - 46.4 °F 55% 29.93 in 10.0 mi North 16.1 mph - N/A   Clear
9:55 AM 62.6 °F - 46.4 °F 55% 29.93 in 10.0 mi North 16.1 mph - N/A   Light Drizzle
10:15 AM 64.4 °F - 48.2 °F 56% 29.93 in 10.0 mi NNE 15.0 mph 21.9 mph N/A   Clear
10:35 AM 68.0 °F - 48.2 °F 49% 29.93 in 10.0 mi North 16.1 mph 23.0 mph N/A   Clear
10:55 AM 69.8 °F - 48.2 °F 46% 29.94 in 10.0 mi NNE 16.1 mph - N/A   Clear
11:15 AM 69.8 °F - 48.2 °F 46% 29.94 in 10.0 mi North 20.7 mph - N/A   Clear
11:35 AM 69.8 °F - 48.2 °F 46% 29.94 in 10.0 mi NNW 17.3 mph 26.5 mph N/A   Clear
12:15 PM 71.6 °F - 46.4 °F 41% 29.93 in 10.0 mi North 19.6 mph 28.8 mph N/A   Clear
12:35 PM 73.4 °F - 46.4 °F 38% 29.93 in 10.0 mi North 20.7 mph 28.8 mph N/A   Clear
12:55 PM 73.4 °F - 46.4 °F 38% 29.92 in 10.0 mi North 21.9 mph 31.1 mph N/A   Clear
1:15 PM 73.4 °F - 48.2 °F 41% 29.92 in 10.0 mi North 19.6 mph 29.9 mph N/A   Clear
1:35 PM 75.2 °F - 46.4 °F 36% 29.91 in 10.0 mi North 24.2 mph - N/A   Clear
2:15 PM 73.4 °F - 41.0 °F 31% 29.91 in 10.0 mi North 21.9 mph 35.7 mph N/A   Clear
2:55 PM 73.4 °F - 30.2 °F 20% 29.91 in 10.0 mi North 27.6 mph 35.7 mph N/A   Clear
3:15 PM 73.4 °F - 35.6 °F 25% 29.91 in 10.0 mi North 25.3 mph 34.5 mph N/A   Clear
3:35 PM 73.4 °F - 35.6 °F 25% 29.91 in 10.0 mi North 23.0 mph 29.9 mph N/A   Clear
3:55 PM 73.4 °F - 37.4 °F 27% 29.91 in 10.0 mi North 21.9 mph 29.9 mph N/A   Clear
4:15 PM 73.4 °F - 37.4 °F 27% 29.91 in 10.0 mi North 23.0 mph 29.9 mph N/A   Clear
4:35 PM 73.4 °F - 37.4 °F 27% 29.91 in 10.0 mi North 21.9 mph 32.2 mph N/A   Clear
4:55 PM 71.6 °F - 37.4 °F 29% 29.91 in 10.0 mi North 23.0 mph 32.2 mph N/A   Clear
5:15 PM 71.6 °F - 37.4 °F 29% 29.91 in 10.0 mi North 26.5 mph - N/A   Clear
5:35 PM 71.6 °F - 37.4 °F 29% 29.92 in 10.0 mi North 19.6 mph 27.6 mph N/A   Clear
5:55 PM 69.8 °F - 37.4 °F 31% 29.92 in 10.0 mi North 19.6 mph 26.5 mph N/A   Clear
6:15 PM 69.8 °F - 37.4 °F 31% 29.92 in 10.0 mi NNW 24.2 mph - N/A   Clear
6:35 PM 68.0 °F - 37.4 °F 33% 29.92 in 10.0 mi North 18.4 mph 28.8 mph N/A   Clear
6:55 PM 66.2 °F - 37.4 °F 35% 29.93 in 10.0 mi North 16.1 mph 21.9 mph N/A   Clear
7:15 PM 66.2 °F - 37.4 °F 35% 29.93 in 10.0 mi North 13.8 mph 20.7 mph N/A   Clear
7:35 PM 64.4 °F - 37.4 °F 37% 29.94 in 10.0 mi NNW 13.8 mph - N/A   Clear
7:55 PM 62.6 °F - 35.6 °F 37% 29.94 in 10.0 mi NNW 13.8 mph - N/A   Clear
8:15 PM 60.8 °F - 35.6 °F 39% 29.94 in 10.0 mi NNW 11.5 mph - N/A   Clear
8:35 PM 59.0 °F - 35.6 °F 42% 29.94 in 10.0 mi NW 10.4 mph - N/A   Clear
8:55 PM 57.2 °F - 35.6 °F 44% 29.95 in 10.0 mi NNW 11.5 mph - N/A   Clear
9:15 PM 57.2 °F - 35.6 °F 44% 29.95 in 10.0 mi NNW 10.4 mph - N/A   Clear
9:35 PM 57.2 °F - 33.8 °F 41% 29.95 in 10.0 mi NNW 11.5 mph - N/A   Clear
9:55 PM 57.2 °F - 33.8 °F 41% 29.96 in 10.0 mi NNW 12.7 mph - N/A   Clear
10:15 PM 55.4 °F - 33.8 °F 44% 29.96 in 10.0 mi NNW 11.5 mph - N/A   Clear
10:35 PM 55.4 °F - 33.8 °F 44% 29.96 in 10.0 mi NNW 10.4 mph - N/A   Clear
10:55 PM 53.6 °F - 32.0 °F 44% 29.96 in 10.0 mi NNW 10.4 mph - N/A   Clear
11:15 PM 53.6 °F - 32.0 °F 44% 29.96 in 10.0 mi NNW 11.5 mph - N/A   Clear
11:35 PM 53.6 °F - 32.0 °F 44% 29.96 in 10.0 mi NNW 10.4 mph - N/A   Clear
11:55 PM 53.6 °F - 32.0 °F 44% 29.96 in 10.0 mi NNW 9.2 mph - N/A   Clear